sensor_id;sensor_type;location;lat;lon;timestamp;pressure;altitude;pressure_sealevel;temperature;humidity
53647;BME280;39550;52.230;5.194;2024-03-02T00:02:06;99591.09;;;6.62;94.74
53647;BME280;39550;52.230;5.194;2024-03-02T00:04:32;99613.28;;;6.68;95.30
53647;BME280;39550;52.230;5.194;2024-03-02T00:06:57;99620.09;;;6.64;94.91
53647;BME280;39550;52.230;5.194;2024-03-02T00:09:22;99618.41;;;6.66;95.15
53647;BME280;39550;52.230;5.194;2024-03-02T00:11:48;99628.59;;;6.60;95.08
53647;BME280;39550;52.230;5.194;2024-03-02T00:14:13;99638.88;;;6.66;95.53
53647;BME280;39550;52.230;5.194;2024-03-02T00:16:38;99666.19;;;6.67;95.56
53647;BME280;39550;52.230;5.194;2024-03-02T00:19:05;99651.69;;;6.66;94.39
53647;BME280;39550;52.230;5.194;2024-03-02T00:21:32;99671.28;;;6.67;94.22
53647;BME280;39550;52.230;5.194;2024-03-02T00:23:58;99680.69;;;6.63;95.39
53647;BME280;39550;52.230;5.194;2024-03-02T00:26:25;99688.38;;;6.68;95.38
53647;BME280;39550;52.230;5.194;2024-03-02T00:28:54;99722.50;;;6.67;95.53
53647;BME280;39550;52.230;5.194;2024-03-02T00:31:21;99734.47;;;6.68;94.43
53647;BME280;39550;52.230;5.194;2024-03-02T00:33:48;99729.34;;;6.68;94.48
53647;BME280;39550;52.230;5.194;2024-03-02T00:36:15;99726.78;;;6.67;95.22
53647;BME280;39550;52.230;5.194;2024-03-02T00:38:47;99715.69;;;6.66;95.50
53647;BME280;39550;52.230;5.194;2024-03-02T00:41:30;99729.31;;;6.65;94.58
53647;BME280;39550;52.230;5.194;2024-03-02T00:46:26;99733.56;;;6.64;95.53
53647;BME280;39550;52.230;5.194;2024-03-02T00:48:57;99731.03;;;6.66;94.67
53647;BME280;39550;52.230;5.194;2024-03-02T00:51:24;99735.28;;;6.65;94.92
53647;BME280;39550;52.230;5.194;2024-03-02T00:53:54;99737.84;;;6.64;94.80
53647;BME280;39550;52.230;5.194;2024-03-02T00:56:23;99731.88;;;6.63;95.52
53647;BME280;39550;52.230;5.194;2024-03-02T00:58:49;99735.28;;;6.64;94.83
53647;BME280;39550;52.230;5.194;2024-03-02T01:01:14;99734.44;;;6.63;95.09
53647;BME280;39550;52.230;5.194;2024-03-02T01:03:41;99726.69;;;6.56;95.81
53647;BME280;39550;52.230;5.194;2024-03-02T01:06:07;99742.94;;;6.58;96.01
53647;BME280;39550;52.230;5.194;2024-03-02T01:08:33;99748.09;;;6.64;96.04
53647;BME280;39550;52.230;5.194;2024-03-02T01:10:59;99743.81;;;6.63;95.38
53647;BME280;39550;52.230;5.194;2024-03-02T01:13:24;99722.47;;;6.58;95.88
53647;BME280;39550;52.230;5.194;2024-03-02T01:15:50;99731.00;;;6.63;95.88
53647;BME280;39550;52.230;5.194;2024-03-02T01:18:15;99736.13;;;6.63;96.38
53647;BME280;39550;52.230;5.194;2024-03-02T01:20:41;99751.47;;;6.63;95.79
53647;BME280;39550;52.230;5.194;2024-03-02T01:23:06;99737.81;;;6.56;96.25
53647;BME280;39550;52.230;5.194;2024-03-02T01:25:31;99743.81;;;6.64;96.00
53647;BME280;39550;52.230;5.194;2024-03-02T01:27:57;99751.47;;;6.63;96.15
53647;BME280;39550;52.230;5.194;2024-03-02T01:30:22;99746.38;;;6.63;96.59
53647;BME280;39550;52.230;5.194;2024-03-02T01:32:48;99750.63;;;6.62;95.83
53647;BME280;39550;52.230;5.194;2024-03-02T01:35:13;99748.91;;;6.63;96.08
53647;BME280;39550;52.230;5.194;2024-03-02T01:37:40;99746.38;;;6.63;95.66
53647;BME280;39550;52.230;5.194;2024-03-02T01:40:06;99744.63;;;6.59;96.36
53647;BME280;39550;52.230;5.194;2024-03-02T01:42:35;99752.34;;;6.62;96.45
53647;BME280;39550;52.230;5.194;2024-03-02T01:45:01;99748.06;;;6.61;96.41
53647;BME280;39550;52.230;5.194;2024-03-02T01:47:26;99748.06;;;6.61;96.13
53647;BME280;39550;52.230;5.194;2024-03-02T01:49:51;99746.34;;;6.60;96.91
53647;BME280;39550;52.230;5.194;2024-03-02T01:52:17;99761.72;;;6.60;96.27
53647;BME280;39550;52.230;5.194;2024-03-02T01:54:42;99759.16;;;6.60;96.81
53647;BME280;39550;52.230;5.194;2024-03-02T01:57:07;99766.84;;;6.60;96.59
53647;BME280;39550;52.230;5.194;2024-03-02T01:59:32;99782.19;;;6.60;96.93
53647;BME280;39550;52.230;5.194;2024-03-02T02:01:58;99777.91;;;6.60;96.13
53647;BME280;39550;52.230;5.194;2024-03-02T02:04:23;99779.63;;;6.60;96.22
53647;BME280;39550;52.230;5.194;2024-03-02T02:06:53;99785.59;;;6.59;96.60
53647;BME280;39550;52.230;5.194;2024-03-02T02:09:18;99761.72;;;6.60;96.21
53647;BME280;39550;52.230;5.194;2024-03-02T02:11:44;99760.84;;;6.58;97.04
53647;BME280;39550;52.230;5.194;2024-03-02T02:14:09;99770.22;;;6.57;96.26
53647;BME280;39550;52.230;5.194;2024-03-02T02:16:35;99767.66;;;6.57;97.08
53647;BME280;39550;52.230;5.194;2024-03-02T02:19:00;99771.91;;;6.54;96.64
53647;BME280;39550;52.230;5.194;2024-03-02T02:21:25;99781.28;;;6.55;96.17
53647;BME280;39550;52.230;5.194;2024-03-02T02:23:51;99778.72;;;6.55;97.26
53647;BME280;39550;52.230;5.194;2024-03-02T02:26:17;99778.72;;;6.55;96.87
53647;BME280;39550;52.230;5.194;2024-03-02T02:28:42;99754.84;;;6.56;97.34
53647;BME280;39550;52.230;5.194;2024-03-02T02:31:15;99768.50;;;6.55;96.39
53647;BME280;39550;52.230;5.194;2024-03-02T02:33:40;99758.25;;;6.52;96.97
53647;BME280;39550;52.230;5.194;2024-03-02T02:36:06;99768.50;;;6.55;97.09
53647;BME280;39550;52.230;5.194;2024-03-02T02:38:36;99765.94;;;6.55;96.53
53647;BME280;39550;52.230;5.194;2024-03-02T02:41:03;99774.50;;;6.55;96.50
53647;BME280;39550;52.230;5.194;2024-03-02T02:43:28;99773.63;;;6.55;97.13
53647;BME280;39550;52.230;5.194;2024-03-02T02:45:53;99773.63;;;6.55;96.74
53647;BME280;39550;52.230;5.194;2024-03-02T02:48:19;99772.75;;;6.54;97.17
53647;BME280;39550;52.230;5.194;2024-03-02T02:50:44;99780.44;;;6.54;96.52
53647;BME280;39550;52.230;5.194;2024-03-02T02:53:09;99774.47;;;6.52;97.22
53647;BME280;39550;52.230;5.194;2024-03-02T02:55:35;99773.59;;;6.53;97.53
53647;BME280;39550;52.230;5.194;2024-03-02T02:58:06;99777.00;;;6.51;96.71
53647;BME280;39550;52.230;5.194;2024-03-02T03:00:31;99779.59;;;6.52;96.58
53647;BME280;39550;52.230;5.194;2024-03-02T03:02:56;99783.00;;;6.53;96.86
53647;BME280;39550;52.230;5.194;2024-03-02T03:05:22;99788.09;;;6.51;96.78
53647;BME280;39550;52.230;5.194;2024-03-02T03:07:47;99784.66;;;6.51;96.42
53647;BME280;39550;52.230;5.194;2024-03-02T03:10:15;99779.56;;;6.51;96.46
53647;BME280;39550;52.230;5.194;2024-03-02T03:12:40;99786.38;;;6.50;96.53
53647;BME280;39550;52.230;5.194;2024-03-02T03:15:07;99782.13;;;6.51;97.02
53647;BME280;39550;52.230;5.194;2024-03-02T03:17:33;99777.84;;;6.48;97.37
53647;BME280;39550;52.230;5.194;2024-03-02T03:19:59;99778.72;;;6.52;97.11
53647;BME280;39550;52.230;5.194;2024-03-02T03:22:25;99781.25;;;6.50;96.69
53647;BME280;39550;52.230;5.194;2024-03-02T03:24:51;99787.22;;;6.51;96.85
53647;BME280;39550;52.230;5.194;2024-03-02T03:27:16;99791.50;;;6.50;96.46
53647;BME280;39550;52.230;5.194;2024-03-02T03:29:41;99790.66;;;6.50;96.82
53647;BME280;39550;52.230;5.194;2024-03-02T03:32:07;99785.53;;;6.50;96.55
53647;BME280;39550;52.230;5.194;2024-03-02T03:34:33;99788.09;;;6.50;97.21
53647;BME280;39550;52.230;5.194;2024-03-02T03:36:58;99785.53;;;6.50;96.93
53647;BME280;39550;52.230;5.194;2024-03-02T03:39:23;99798.34;;;6.50;96.54
53647;BME280;39550;52.230;5.194;2024-03-02T03:41:49;99795.78;;;6.50;97.15
53647;BME280;39550;52.230;5.194;2024-03-02T03:44:14;99794.06;;;6.48;97.25
53647;BME280;39550;52.230;5.194;2024-03-02T03:46:39;99795.78;;;6.50;97.35
53647;BME280;39550;52.230;5.194;2024-03-02T03:49:04;99800.03;;;6.49;97.24
53647;BME280;39550;52.230;5.194;2024-03-02T03:51:30;99806.88;;;6.53;97.20
53647;BME280;39550;52.230;5.194;2024-03-02T03:53:55;99807.69;;;6.47;96.83
53647;BME280;39550;52.230;5.194;2024-03-02T03:56:21;99813.69;;;6.50;97.54
53647;BME280;39550;52.230;5.194;2024-03-02T03:58:46;99819.66;;;6.48;97.20
53647;BME280;39550;52.230;5.194;2024-03-02T04:01:11;99809.41;;;6.48;96.81
53647;BME280;39550;52.230;5.194;2024-03-02T04:03:38;99811.97;;;6.48;97.01
53647;BME280;39550;52.230;5.194;2024-03-02T04:06:03;99809.44;;;6.52;96.45
53647;BME280;39550;52.230;5.194;2024-03-02T04:08:28;99814.53;;;6.52;96.29
53647;BME280;39550;52.230;5.194;2024-03-02T04:10:54;99807.75;;;6.54;97.01
53647;BME280;39550;52.230;5.194;2024-03-02T04:13:19;99820.56;;;6.54;96.63
53647;BME280;39550;52.230;5.194;2024-03-02T04:15:45;99815.44;;;6.54;96.72
53647;BME280;39550;52.230;5.194;2024-03-02T04:18:10;99825.66;;;6.54;96.70
53647;BME280;39550;52.230;5.194;2024-03-02T04:20:36;99833.34;;;6.54;97.04
53647;BME280;39550;52.230;5.194;2024-03-02T04:23:01;99828.22;;;6.54;96.89
53647;BME280;39550;52.230;5.194;2024-03-02T04:25:27;99824.78;;;6.52;96.27
53647;BME280;39550;52.230;5.194;2024-03-02T04:27:52;99819.66;;;6.52;97.12
53647;BME280;39550;52.230;5.194;2024-03-02T04:30:17;99815.38;;;6.49;96.33
53647;BME280;39550;52.230;5.194;2024-03-02T04:32:43;99814.53;;;6.48;96.50
53647;BME280;39550;52.230;5.194;2024-03-02T04:35:11;99821.31;;;6.46;96.43
53647;BME280;39550;52.230;5.194;2024-03-02T04:37:37;99820.47;;;6.46;97.23
53647;BME280;39550;52.230;5.194;2024-03-02T04:40:03;99818.75;;;6.42;97.06
53647;BME280;39550;52.230;5.194;2024-03-02T04:42:28;99828.16;;;6.47;97.30
53647;BME280;39550;52.230;5.194;2024-03-02T04:44:53;99824.78;;;6.48;97.14
53647;BME280;39550;52.230;5.194;2024-03-02T04:47:19;99836.72;;;6.50;96.85
53647;BME280;39550;52.230;5.194;2024-03-02T04:49:44;99835.00;;;6.48;96.42
53647;BME280;39550;52.230;5.194;2024-03-02T04:52:09;99826.44;;;6.46;96.27
53647;BME280;39550;52.230;5.194;2024-03-02T04:54:35;99840.94;;;6.44;96.87
53647;BME280;39550;52.230;5.194;2024-03-02T04:57:23;99847.72;;;6.42;96.90
53647;BME280;39550;52.230;5.194;2024-03-02T04:59:48;99844.34;;;6.43;97.29
53647;BME280;39550;52.230;5.194;2024-03-02T05:02:13;99846.06;;;6.43;96.34
53647;BME280;39550;52.230;5.194;2024-03-02T05:04:39;99854.56;;;6.42;96.48
53647;BME280;39550;52.230;5.194;2024-03-02T05:07:05;99846.00;;;6.38;97.00
53647;BME280;39550;52.230;5.194;2024-03-02T05:09:30;99857.13;;;6.40;96.74
53647;BME280;39550;52.230;5.194;2024-03-02T05:11:55;99857.13;;;6.40;96.93
53647;BME280;39550;52.230;5.194;2024-03-02T05:14:39;99857.13;;;6.40;97.17
53647;BME280;39550;52.230;5.194;2024-03-02T05:17:04;99857.97;;;6.41;97.11
53647;BME280;39550;52.230;5.194;2024-03-02T05:19:30;99852.84;;;6.41;97.61
53647;BME280;39550;52.230;5.194;2024-03-02T05:21:55;99853.72;;;6.41;97.36
53647;BME280;39550;52.230;5.194;2024-03-02T05:24:20;99857.94;;;6.39;96.97
53647;BME280;39550;52.230;5.194;2024-03-02T05:26:45;99861.38;;;6.40;96.78
53647;BME280;39550;52.230;5.194;2024-03-02T05:29:11;99863.06;;;6.39;97.56
53647;BME280;39550;52.230;5.194;2024-03-02T05:31:36;99861.34;;;6.38;96.52
53647;BME280;39550;52.230;5.194;2024-03-02T05:34:01;99869.03;;;6.38;96.70
53647;BME280;39550;52.230;5.194;2024-03-02T05:36:27;99863.91;;;6.38;96.52
53647;BME280;39550;52.230;5.194;2024-03-02T05:38:53;99863.06;;;6.38;97.45
53647;BME280;39550;52.230;5.194;2024-03-02T05:41:18;99862.22;;;6.37;97.59
53647;BME280;39550;52.230;5.194;2024-03-02T05:43:43;99868.97;;;6.32;96.69
53647;BME280;39550;52.230;5.194;2024-03-02T05:46:08;99875.81;;;6.33;96.72
53647;BME280;39550;52.230;5.194;2024-03-02T05:48:34;99872.44;;;6.37;96.88
53647;BME280;39550;52.230;5.194;2024-03-02T05:50:59;99873.28;;;6.36;97.52
53647;BME280;39550;52.230;5.194;2024-03-02T05:53:24;99870.72;;;6.36;97.07
53647;BME280;39550;52.230;5.194;2024-03-02T05:55:50;99873.28;;;6.36;96.91
53647;BME280;39550;52.230;5.194;2024-03-02T05:58:20;99872.38;;;6.31;96.77
53647;BME280;39550;52.230;5.194;2024-03-02T06:01:02;99859.53;;;6.23;96.55
53647;BME280;39550;52.230;5.194;2024-03-02T06:03:28;99879.22;;;6.35;97.61
53647;BME280;39550;52.230;5.194;2024-03-02T06:05:53;99887.78;;;6.34;96.96
53647;BME280;39550;52.230;5.194;2024-03-02T06:08:18;99886.06;;;6.35;96.84
53647;BME280;39550;52.230;5.194;2024-03-02T06:10:44;99892.03;;;6.35;96.71
53647;BME280;39550;52.230;5.194;2024-03-02T06:13:09;99887.78;;;6.34;97.04
53647;BME280;39550;52.230;5.194;2024-03-02T06:15:34;99882.66;;;6.34;96.86
53647;BME280;39550;52.230;5.194;2024-03-02T06:18:01;99887.78;;;6.34;97.07
53647;BME280;39550;52.230;5.194;2024-03-02T06:20:26;99892.00;;;6.34;96.46
53647;BME280;39550;52.230;5.194;2024-03-02T06:22:52;99901.41;;;6.33;96.88
53647;BME280;39550;52.230;5.194;2024-03-02T06:25:17;99897.13;;;6.34;97.16
53647;BME280;39550;52.230;5.194;2024-03-02T06:27:42;99897.97;;;6.33;97.18
53647;BME280;39550;52.230;5.194;2024-03-02T06:30:08;99901.41;;;6.33;97.27
53647;BME280;39550;52.230;5.194;2024-03-02T06:32:33;99904.78;;;6.32;97.02
53647;BME280;39550;52.230;5.194;2024-03-02T06:34:59;99904.78;;;6.32;96.49
53647;BME280;39550;52.230;5.194;2024-03-02T06:37:24;99905.63;;;6.31;96.58
53647;BME280;39550;52.230;5.194;2024-03-02T06:39:50;99903.06;;;6.31;96.56
53647;BME280;39550;52.230;5.194;2024-03-02T06:42:15;99913.31;;;6.31;96.91
53647;BME280;39550;52.230;5.194;2024-03-02T06:44:40;99914.19;;;6.30;97.05
53647;BME280;39550;52.230;5.194;2024-03-02T06:47:06;99912.47;;;6.30;96.95
53647;BME280;39550;52.230;5.194;2024-03-02T06:49:31;99919.28;;;6.30;97.29
53647;BME280;39550;52.230;5.194;2024-03-02T06:51:56;99926.09;;;6.29;96.66
53647;BME280;39550;52.230;5.194;2024-03-02T06:54:21;99919.28;;;6.30;97.15
53647;BME280;39550;52.230;5.194;2024-03-02T06:56:47;99921.84;;;6.30;96.79
53647;BME280;39550;52.230;5.194;2024-03-02T06:59:12;99920.97;;;6.29;96.81
53647;BME280;39550;52.230;5.194;2024-03-02T07:01:37;99926.09;;;6.31;96.51
53647;BME280;39550;52.230;5.194;2024-03-02T07:04:02;99915.00;;;6.29;96.67
53647;BME280;39550;52.230;5.194;2024-03-02T07:06:28;99918.41;;;6.28;96.59
53647;BME280;39550;52.230;5.194;2024-03-02T07:08:53;99910.72;;;6.28;96.45
53647;BME280;39550;52.230;5.194;2024-03-02T07:11:18;99915.00;;;6.29;96.30
53647;BME280;39550;52.230;5.194;2024-03-02T07:13:44;99913.25;;;6.25;96.39
53647;BME280;39550;52.230;5.194;2024-03-02T07:16:09;99915.81;;;6.23;96.92
53647;BME280;39550;52.230;5.194;2024-03-02T07:18:55;99916.69;;;6.27;97.23
53647;BME280;39550;52.230;5.194;2024-03-02T07:21:21;99914.13;;;6.27;96.67
53647;BME280;39550;52.230;5.194;2024-03-02T07:23:50;99916.69;;;6.27;96.76
53647;BME280;39550;52.230;5.194;2024-03-02T07:26:15;99920.97;;;6.28;96.22
53647;BME280;39550;52.230;5.194;2024-03-02T07:28:43;99935.47;;;6.27;96.57
53647;BME280;39550;52.230;5.194;2024-03-02T07:31:09;99930.34;;;6.26;97.10
53647;BME280;39550;52.230;5.194;2024-03-02T07:33:35;99932.91;;;6.27;97.28
53647;BME280;39550;52.230;5.194;2024-03-02T07:36:00;99935.44;;;6.26;96.97
53647;BME280;39550;52.230;5.194;2024-03-02T07:38:26;99939.69;;;6.25;96.69
53647;BME280;39550;52.230;5.194;2024-03-02T07:40:52;99944.81;;;6.25;96.49
53647;BME280;39550;52.230;5.194;2024-03-02T07:43:20;99948.25;;;6.27;96.48
53647;BME280;39550;52.230;5.194;2024-03-02T07:45:46;99944.81;;;6.25;96.17
53647;BME280;39550;52.230;5.194;2024-03-02T07:48:12;99946.53;;;6.25;96.42
53647;BME280;39550;52.230;5.194;2024-03-02T07:50:38;99950.81;;;6.26;96.57
53647;BME280;39550;52.230;5.194;2024-03-02T07:53:04;99955.88;;;6.23;97.13
53647;BME280;39550;52.230;5.194;2024-03-02T07:55:30;99950.75;;;6.23;96.32
53647;BME280;39550;52.230;5.194;2024-03-02T07:57:56;99952.44;;;6.21;96.36
53647;BME280;39550;52.230;5.194;2024-03-02T08:00:22;99929.25;;;6.07;96.95
53647;BME280;39550;52.230;5.194;2024-03-02T08:02:48;99965.28;;;6.25;96.42
53647;BME280;39550;52.230;5.194;2024-03-02T08:05:14;99966.16;;;6.26;96.50
53647;BME280;39550;52.230;5.194;2024-03-02T08:07:39;99968.66;;;6.24;96.20
53647;BME280;39550;52.230;5.194;2024-03-02T08:10:05;99971.22;;;6.24;95.82
53647;BME280;39550;52.230;5.194;2024-03-02T08:12:30;99971.22;;;6.23;96.21
53647;BME280;39550;52.230;5.194;2024-03-02T08:14:56;99964.41;;;6.22;96.04
53647;BME280;39550;52.230;5.194;2024-03-02T08:17:21;99973.75;;;6.21;96.55
53647;BME280;39550;52.230;5.194;2024-03-02T08:19:46;99965.25;;;6.22;96.05
53647;BME280;39550;52.230;5.194;2024-03-02T08:22:14;99976.31;;;6.23;96.24
53647;BME280;39550;52.230;5.194;2024-03-02T08:24:40;99970.38;;;6.22;96.50
53647;BME280;39550;52.230;5.194;2024-03-02T08:27:05;99979.78;;;6.25;96.34
53647;BME280;39550;52.230;5.194;2024-03-02T08:29:31;99967.00;;;6.26;96.40
53647;BME280;39550;52.230;5.194;2024-03-02T08:31:56;99967.84;;;6.27;96.20
53647;BME280;39550;52.230;5.194;2024-03-02T08:34:21;99970.41;;;6.27;96.03
53647;BME280;39550;52.230;5.194;2024-03-02T08:36:47;99962.72;;;6.27;96.01
53647;BME280;39550;52.230;5.194;2024-03-02T08:39:12;99960.16;;;6.25;95.78
53647;BME280;39550;52.230;5.194;2024-03-02T08:41:41;99960.16;;;6.25;96.60
53647;BME280;39550;52.230;5.194;2024-03-02T08:44:08;99957.59;;;6.24;96.61
53647;BME280;39550;52.230;5.194;2024-03-02T08:46:33;99955.00;;;6.22;96.75
53647;BME280;39550;52.230;5.194;2024-03-02T08:48:59;99955.88;;;6.23;95.93
53647;BME280;39550;52.230;5.194;2024-03-02T08:51:24;99957.59;;;6.24;96.80
53647;BME280;39550;52.230;5.194;2024-03-02T08:53:50;99955.88;;;6.23;95.76
53647;BME280;39550;52.230;5.194;2024-03-02T08:56:15;99960.16;;;6.24;95.81
53647;BME280;39550;52.230;5.194;2024-03-02T08:58:41;99952.47;;;6.25;96.63
53647;BME280;39550;52.230;5.194;2024-03-02T09:01:06;99949.91;;;6.22;96.06
53647;BME280;39550;52.230;5.194;2024-03-02T09:03:33;99961.84;;;6.23;95.66
53647;BME280;39550;52.230;5.194;2024-03-02T09:06:00;99965.28;;;6.25;96.37
53647;BME280;39550;52.230;5.194;2024-03-02T09:08:25;99972.13;;;6.26;95.62
53647;BME280;39550;52.230;5.194;2024-03-02T09:10:50;99980.63;;;6.27;96.41
53647;BME280;39550;52.230;5.194;2024-03-02T09:13:15;99978.06;;;6.27;96.31
53647;BME280;39550;52.230;5.194;2024-03-02T09:15:41;99974.69;;;6.28;95.19
53647;BME280;39550;52.230;5.194;2024-03-02T09:18:07;99975.59;;;6.30;92.94
53647;BME280;39550;52.230;5.194;2024-03-02T09:20:32;99977.28;;;6.31;89.04
53647;BME280;39550;52.230;5.194;2024-03-02T09:22:57;99991.78;;;6.32;89.89
53647;BME280;39550;52.230;5.194;2024-03-02T09:25:22;99981.56;;;6.32;88.48
53647;BME280;39550;52.230;5.194;2024-03-02T09:27:48;99979.91;;;6.36;89.63
53647;BME280;39550;52.230;5.194;2024-03-02T09:30:13;99997.81;;;6.34;89.45
53647;BME280;39550;52.230;5.194;2024-03-02T09:32:39;100001.22;;;6.36;89.66
53647;BME280;39550;52.230;5.194;2024-03-02T09:35:04;99997.81;;;6.34;86.89
53647;BME280;39550;52.230;5.194;2024-03-02T09:37:30;99989.28;;;6.37;88.85
53647;BME280;39550;52.230;5.194;2024-03-02T09:39:55;99998.69;;;6.39;89.63
53647;BME280;39550;52.230;5.194;2024-03-02T09:42:21;99990.19;;;6.40;88.17
53647;BME280;39550;52.230;5.194;2024-03-02T09:44:47;99995.31;;;6.43;89.25
53647;BME280;39550;52.230;5.194;2024-03-02T09:47:13;99991.09;;;6.45;88.88
53647;BME280;39550;52.230;5.194;2024-03-02T09:49:39;99988.66;;;6.56;84.35
53647;BME280;39550;52.230;5.194;2024-03-02T09:52:05;99986.09;;;6.56;85.84
53647;BME280;39550;52.230;5.194;2024-03-02T09:54:30;99982.66;;;6.56;86.18
53647;BME280;39550;52.230;5.194;2024-03-02T09:56:56;100004.03;;;6.58;86.00
53647;BME280;39550;52.230;5.194;2024-03-02T09:59:21;99993.78;;;6.58;84.53
53647;BME280;39550;52.230;5.194;2024-03-02T10:04:25;99975.78;;;6.50;84.92
53647;BME280;39550;52.230;5.194;2024-03-02T10:06:50;99987.00;;;6.63;84.50
53647;BME280;39550;52.230;5.194;2024-03-02T10:09:27;99991.31;;;6.67;84.20
53647;BME280;39550;52.230;5.194;2024-03-02T10:11:52;99992.16;;;6.66;84.44
53647;BME280;39550;52.230;5.194;2024-03-02T10:14:18;99998.13;;;6.65;85.88
53647;BME280;39550;52.230;5.194;2024-03-02T10:16:44;99993.88;;;6.67;84.21
53647;BME280;39550;52.230;5.194;2024-03-02T10:19:19;99988.81;;;6.72;82.91
53647;BME280;39550;52.230;5.194;2024-03-02T10:21:54;99988.00;;;6.77;82.38
53647;BME280;39550;52.230;5.194;2024-03-02T10:24:21;99985.44;;;6.77;82.84
53647;BME280;39550;52.230;5.194;2024-03-02T10:26:47;99983.75;;;6.79;82.82
53647;BME280;39550;52.230;5.194;2024-03-02T10:29:13;99985.47;;;6.80;81.65
53647;BME280;39550;52.230;5.194;2024-03-02T10:31:40;99999.19;;;6.86;80.92
53647;BME280;39550;52.230;5.194;2024-03-02T10:34:07;99986.41;;;6.89;81.47
53647;BME280;39550;52.230;5.194;2024-03-02T10:36:33;99988.94;;;6.86;81.55
53647;BME280;39550;52.230;5.194;2024-03-02T10:39:04;99980.38;;;6.84;82.40
53647;BME280;39550;52.230;5.194;2024-03-02T10:41:34;99976.97;;;6.85;80.18
53647;BME280;39550;52.230;5.194;2024-03-02T10:44:08;99978.72;;;6.89;80.58
53647;BME280;39550;52.230;5.194;2024-03-02T10:46:36;99970.22;;;6.94;79.40
53647;BME280;39550;52.230;5.194;2024-03-02T10:49:03;99971.16;;;7.03;79.34
53647;BME280;39550;52.230;5.194;2024-03-02T10:51:31;99971.19;;;7.07;80.18
53647;BME280;39550;52.230;5.194;2024-03-02T10:53:58;99978.88;;;7.07;78.51
53647;BME280;39550;52.230;5.194;2024-03-02T10:56:40;99970.34;;;7.11;77.52
53647;BME280;39550;52.230;5.194;2024-03-02T10:59:33;99967.78;;;7.07;77.94
53647;BME280;39550;52.230;5.194;2024-03-02T11:02:00;99968.63;;;7.07;78.34
53647;BME280;39550;52.230;5.194;2024-03-02T11:04:30;99957.50;;;7.05;77.82
53647;BME280;39550;52.230;5.194;2024-03-02T11:07:04;99954.13;;;7.09;76.00
53647;BME280;39550;52.230;5.194;2024-03-02T11:09:33;99948.19;;;7.13;76.42
53647;BME280;39550;52.230;5.194;2024-03-02T11:12:47;99944.81;;;7.18;77.23
53647;BME280;39550;52.230;5.194;2024-03-02T11:15:17;99949.91;;;7.18;76.59
53647;BME280;39550;52.230;5.194;2024-03-02T11:17:46;99954.16;;;7.17;76.55
53647;BME280;39550;52.230;5.194;2024-03-02T11:20:11;99959.34;;;7.22;76.43
53647;BME280;39550;52.230;5.194;2024-03-02T11:22:37;99959.28;;;7.14;77.94
53647;BME280;39550;52.230;5.194;2024-03-02T11:25:03;99957.66;;;7.27;76.78
53647;BME280;39550;52.230;5.194;2024-03-02T11:32:58;99954.34;;;7.40;75.25
53647;BME280;39550;52.230;5.194;2024-03-02T11:35:27;99949.25;;;7.45;74.78
53647;BME280;39550;52.230;5.194;2024-03-02T11:37:55;99953.50;;;7.41;76.12
53647;BME280;39550;52.230;5.194;2024-03-02T11:40:27;99950.94;;;7.41;75.11
53647;BME280;39550;52.230;5.194;2024-03-02T11:42:53;99953.53;;;7.47;75.76
53647;BME280;39550;52.230;5.194;2024-03-02T11:45:25;99948.47;;;7.57;74.40
53647;BME280;39550;52.230;5.194;2024-03-02T11:47:51;99951.03;;;7.55;74.02
53647;BME280;39550;52.230;5.194;2024-03-02T11:50:33;99951.84;;;7.54;74.26
53647;BME280;39550;52.230;5.194;2024-03-02T11:52:59;99947.63;;;7.61;72.76
53647;BME280;39550;52.230;5.194;2024-03-02T11:55:25;99945.06;;;7.61;73.69
53647;BME280;39550;52.230;5.194;2024-03-02T11:57:52;99934.81;;;7.61;73.73
53647;BME280;39550;52.230;5.194;2024-03-02T12:00:18;99939.09;;;7.60;74.12
53647;BME280;39550;52.230;5.194;2024-03-02T12:02:46;99939.09;;;7.60;73.21
53647;BME280;39550;52.230;5.194;2024-03-02T12:05:15;99929.72;;;7.67;72.37
53647;BME280;39550;52.230;5.194;2024-03-02T12:07:42;99933.16;;;7.72;72.97
53647;BME280;39550;52.230;5.194;2024-03-02T12:10:08;99922.06;;;7.76;73.16
53647;BME280;39550;52.230;5.194;2024-03-02T12:12:33;99918.66;;;7.83;72.79
53647;BME280;39550;52.230;5.194;2024-03-02T12:14:58;99916.13;;;7.87;72.96
53647;BME280;39550;52.230;5.194;2024-03-02T12:17:25;99901.53;;;7.79;73.81
53647;BME280;39550;52.230;5.194;2024-03-02T12:19:51;99905.81;;;7.77;72.99
53647;BME280;39550;52.230;5.194;2024-03-02T12:22:16;99905.84;;;7.83;73.01
53647;BME280;39550;52.230;5.194;2024-03-02T12:24:41;99900.75;;;7.88;72.67
53647;BME280;39550;52.230;5.194;2024-03-02T12:27:10;99892.22;;;8.00;71.73
53647;BME280;39550;52.230;5.194;2024-03-02T12:29:36;99897.38;;;8.03;72.00
53647;BME280;39550;52.230;5.194;2024-03-02T12:32:01;99887.97;;;8.08;70.60
53647;BME280;39550;52.230;5.194;2024-03-02T12:34:27;99887.97;;;8.07;71.07
53647;BME280;39550;52.230;5.194;2024-03-02T12:36:52;99888.84;;;8.13;69.21
53647;BME280;39550;52.230;5.194;2024-03-02T12:39:21;99878.56;;;8.13;69.60
53647;BME280;39550;52.230;5.194;2024-03-02T12:41:48;99888.00;;;8.16;69.68
53647;BME280;39550;52.230;5.194;2024-03-02T12:44:16;99875.16;;;8.21;68.54
53647;BME280;39550;52.230;5.194;2024-03-02T12:46:41;99874.31;;;8.28;68.57
53647;BME280;39550;52.230;5.194;2024-03-02T12:49:08;99866.63;;;8.25;68.09
53647;BME280;39550;52.230;5.194;2024-03-02T12:51:35;99864.06;;;8.20;68.87
53647;BME280;39550;52.230;5.194;2024-03-02T12:54:01;99870.06;;;8.30;68.48
53647;BME280;39550;52.230;5.194;2024-03-02T12:56:27;99875.19;;;8.30;68.88
53647;BME280;39550;52.230;5.194;2024-03-02T12:58:56;99859.78;;;8.27;67.82
53647;BME280;39550;52.230;5.194;2024-03-02T13:01:22;99864.91;;;8.34;67.77
53647;BME280;39550;52.230;5.194;2024-03-02T13:03:49;99866.63;;;8.42;67.17
53647;BME280;39550;52.230;5.194;2024-03-02T13:06:16;99860.69;;;8.46;66.82
53647;BME280;39550;52.230;5.194;2024-03-02T13:08:42;99865.81;;;8.57;66.31
53647;BME280;39550;52.230;5.194;2024-03-02T13:11:08;99853.81;;;8.94;63.99
53647;BME280;39550;52.230;5.194;2024-03-02T13:13:33;99868.38;;;8.81;64.89
53647;BME280;39550;52.230;5.194;2024-03-02T13:16:00;99856.41;;;8.66;66.26
53647;BME280;39550;52.230;5.194;2024-03-02T13:18:25;99845.31;;;8.61;66.75